AirNav  
 
 1056 users online  

T78 Liberty Municipal Airport
Liberty, Texas, USA

GOING TO LIBERTY?


FAA INFORMATION EFFECTIVE 25 MARCH 2021

Location

FAA Identifier: T78
Lat/Long: 30-04-40.1000N 094-41-54.8000W
30-04.668333N 094-41.913333W
30.0778056,-94.6985556
(estimated)
Elevation: 69.5 ft. / 21.2 m (surveyed)
Variation: 05E (1995)
From city: 6 miles NE of LIBERTY, TX
Time zone: UTC -5 (UTC -6 during Standard Time)
Zip code: 77575

Airport Operations

Airport use: Open to the public
Activation date: 08/1959
Control tower: no
ARTCC: HOUSTON CENTER
FSS: MONTGOMERY COUNTY FLIGHT SERVICE STATION
NOTAMs facility: CXO (NOTAM-D service available)
Attendance: 0800-1800
Wind indicator: lighted
Segmented circle: yes
Lights: ACTVT MIRL RY 16/34 - CTAF.
Beacon: white-green (lighted land airport)
Operates sunset to sunrise.

Airport Communications

CTAF: 122.9
HOUSTON APPROACH: 119.7
HOUSTON DEPARTURE: 119.7
BLTWY RNAV DP: 119.7
BORRN RNAV DP: 119.7
DREMR DP: 119.7
HOODO RNAV DP: 119.7
HUDZY STAR: 120.05
INDIE RNAV DP: 119.7
KARRR RNAV DP: 119.7
LURIC RNAV DP: 119.7
MMALT RNAV DP: 119.7
RIICE STAR: 124.35
STRYA DP: 119.7
STYCK DP: 119.7
WATFO DP: 119.7
WHAEL STAR: 124.225
WYLSN RNAV DP: 119.7

Nearby radio navigation aids

VOR radial/distance  VOR name  Freq  Var
DASr197/7.3DAISETTA VORTAC116.9005E
MHFr358/32.0TRINITY VOR/DME113.6007E
IAHr073/34.4HUMBLE VORTAC116.6005E
BPTr276/36.3BEAUMONT VOR/DME114.5007E

 
NDB name  Hdg/Dist  Freq  Var  ID
GOODHUE264/25.336807EGDE --. -.. .

Airport Services

Fuel available: 100LL JET-A
24 HR SELF-SERVICE FUEL.
Parking: tiedowns
Airframe service: MAJOR
Powerplant service: MAJOR
Bottled oxygen: NONE
Bulk oxygen: NONE

Runway Information

Runway 16/34

Dimensions: 3801 x 75 ft. / 1159 x 23 m
Surface: asphalt, in fair condition
Weight bearing capacity: 
Single wheel: 10.0
Runway edge lights: medium intensity
RUNWAY 16  RUNWAY 34
Latitude: 30-04.971517N30-04.363658N
Longitude: 094-42.001210W094-41.824053W
Elevation: 68.9 ft.68.6 ft.
Traffic pattern: leftleft
Runway heading: 161 magnetic, 166 true341 magnetic, 346 true
Markings: nonprecision, in good conditionnonprecision, in good condition
Visual slope indicator: 2-light PAPI on left (3.00 degrees glide path)
Touchdown point: yes, no lightsyes, no lights
Obstructions: 31 ft. trees, 201 ft. from runway, 182 ft. right of centerline
31 FT TREES, 0-199 FT DSTC, 182 FT R.
95 ft. trees, 1245 ft. from runway, 13:1 slope to clear

Airport Ownership and Management from official FAA records

Ownership: Publicly-owned
Owner: CITY OF LIBERTY
1829 SAM HOUSTON
LIBERTY, TX 77575
Phone 936-587-4150
Manager: PHIL ROBERTSON
1829 SAM HOUSTON
LIBERTY, TX 77575
Phone (281) 660-2337

Airport Operational Statistics

Aircraft based on the field: 24
Single engine airplanes: 21
Multi engine airplanes: 3
    
Aircraft operations: avg 120/week *
58% transient general aviation
41% local general aviation
<1% military
* for 12-month period ending 22 April 2020

Additional Remarks

FOR CD CTC HOUSTON APCH AT 281-443-5844 TO CNL IFR CALL 281-443-5888.

Instrument Procedures

NOTE: All procedures below are presented as PDF files. If you need a reader for these files, you should download the free Adobe Reader.

NOT FOR NAVIGATION. Please procure official charts for flight.
FAA instrument procedures published for use from 25 March 2021 at 0901Z to 22 April 2021 at 0900z.

 
STARs - Standard Terminal Arrivals
HUDZY FOUR   2 pages: [1] [2] (367KB)
OHIIO FOUR   download (317KB)
RIICE EIGHT   2 pages: [1] [2] (602KB)
WHAEL THREE   download (188KB)
 
IAPs - Instrument Approach Procedures
RNAV (GPS) RWY 16   download (172KB)
VOR-A   download (156KB)
 
Departure Procedures
BLTWY SIX (RNAV)   download (154KB)
BORRN FOUR (RNAV)   2 pages: [1] [2] (309KB)
HOODO SIX (RNAV)   download (205KB)
INDIE SEVEN (RNAV)   download (180KB)
KARRR SIX (RNAV)   2 pages: [1] [2] (264KB)
LURIC SEVEN (RNAV)   download (200KB)
MMALT FIVE (RNAV)   download (215KB)
PALACIOS ONE   2 pages: [1] [2] (356KB)
STRYA SEVEN (RNAV)   download (187KB)
STYCK SEVEN (RNAV)   download (175KB)
WATFO FIVE (RNAV)   download (162KB)
WYLSN SEVEN (RNAV)   download (165KB)
NOTE: Special Take-Off Minimums/Departure Procedures apply   download

Other nearby airports with instrument procedures:

T00 - Chambers County Airport (19 nm S)
54T - RWJ Airpark (20 nm S)
KHPY - Baytown Airport (22 nm SW)
6R3 - Cleveland Municipal Airport (23 nm NW)
KBMT - Beaumont Municipal Airport (25 nm E)
 
Loc | Ops | Rwys | IFR | FBO | Links
Com | Nav | Svcs | Stats | Notes
Area around T78 (Liberty Municipal Airport)
 
Road maps at: MapQuest Bing Google
 
Aerial photo
WARNING: Photo may not be current or correct
Aerial photo of T78 (Liberty Municipal Airport)
Photo by David Lawrence flying a 78 Bellanca/17-30A
Photo taken 08-Nov-2014
looking north.

Do you have a better or more recent aerial photo of Liberty Municipal Airport that you would like to share? If so, please send us your photo.

 
Sectional chart

 
Airport diagram
CAUTION: Diagram may not be current
Diagram of T78 (Liberty Municipal Airport)
 
Airport distance calculator
Flying to Liberty Municipal Airport? Find the distance to fly.

From to T78

Sunrise and sunset
Times for 11-Apr-2021
 Local
(UTC-5)
 Zulu
(UTC)
Morning civil twilight06:3311:33
Sunrise06:5711:57
Sunset19:4200:42
Evening civil twilight20:0701:07

Current date and time
Zulu (UTC)  11-Apr-2021 14:28:33
Local (UTC-5)  11-Apr-2021 09:28:33
 
METAR
K6R3 
23nm NW 
111415Z AUTO 00000KT 7SM CLR 16/09 A2982 RMK AO2 T01620090
KBMT 
25nm E 
111415Z AUTO 06006KT 10SM CLR 19/09 A2981 RMK AO2 T01930085
KT41 
31nm SW 
111415Z AUTO 07009KT 10SM CLR 19/09 A2981 RMK AO2 T01930092
KIAH 
35nm W 
111353Z 09007KT 10SM FEW050 17/09 A2980 RMK AO2 SLP091 T01720094
KBPT 
35nm E 
111353Z 06007KT 10SM CLR 17/09 A2980 RMK AO2 SLP091 T01720089
KEFD 
38nm SW 
111350Z 05010KT 10SM CLR 18/08 A2980
KHOU 
40nm SW 
111353Z 08010KT 10SM FEW150 FEW250 19/07 A2980 RMK AO2 SLP094 T01940072
KCXO 
41nm NW 
111353Z 09005KT 10SM CLR 16/08 A2981 RMK AO2 SLP093 T01610078
KDWH 
44nm W 
111353Z 08005KT 10SM CLR 18/08 A2981 RMK AO2 SLP091 T01780083
KLVJ 
44nm SW 
111353Z AUTO 07009KT 10SM CLR 19/09 A2981 RMK AO2 SLP094 T01940089
TAF
KIAH 
35nm W 
111120Z 1112/1218 VRB03KT P6SM SKC FM111600 10007KT P6SM SKC FM120400 17005KT P6SM SKC FM121500 14005KT P6SM SCT025 BKN250
KBPT 
35nm E 
111121Z 1111/1206 03005KT P6SM SKC FM111700 09007KT P6SM SKC FM120100 14004KT P6SM FEW200
KEFD 
38nm SW 
110400Z 1104/1210 35006KT 9999 SKC QNH2972INS BECMG 1117/1118 14009KT 9999 SKC QNH2970INS TX28/1121Z TN13/1112Z
KHOU 
40nm SW 
111120Z 1112/1212 05006KT P6SM SKC FM111600 10008KT P6SM SKC FM111800 13009KT P6SM SKC
KCXO 
41nm NW 
111120Z 1112/1212 VRB03KT P6SM SKC FM111800 14005KT P6SM SKC
NOTAMs
Click for the latest NOTAMs
NOTAMs are issued by the DoD/FAA and will open in a separate window not controlled by AirNav.

 

 
 

FBO, Fuel Providers, and Aircraft Ground Support

  
 Business Name 
 
 Contact 
 
 Services / Description 
 
Fuel Prices
 
Comments
  
Liberty Municipal Airport 281-660-2337
936-336-3684
[web site]
Aviation fuel, Aircraft parking (ramp or tiedown), Restrooms
More info and photos of Liberty Municipal Airport
independent
100LL Jet A
SS $3.75 $2.74 
 Updated 30-Mar-2021
 
   2 read write
SS=Self service
Update Fuel Prices
 

Would you like to see your business listed on this page?

 If your business provides an interesting product or service to pilots, flight crews, aircraft, or users of the Liberty Municipal Airport, you should consider listing it here.  To start the listing process, click on the button below
 
Add a business
 

Other Pages about Liberty Municipal Airport

www.cityofliberty.org/...
 
Update a link
 
Copyright © AirNav, LLC. All rights reserved. Privacy Policy  Contact